sensor_id;sensor_type;location;lat;lon;timestamp;P1;durP1;ratioP1;P2;durP2;ratioP2
57297;SDS011;43147;50.972;18.210;2023-05-23T00:00:55;18.90;;;11.60;;
57297;SDS011;43147;50.972;18.210;2023-05-23T00:03:21;12.40;;;7.60;;
57297;SDS011;43147;50.972;18.210;2023-05-23T00:05:47;14.30;;;10.60;;
57297;SDS011;43147;50.972;18.210;2023-05-23T00:08:13;11.10;;;10.00;;
57297;SDS011;43147;50.972;18.210;2023-05-23T00:10:39;11.70;;;10.30;;
57297;SDS011;43147;50.972;18.210;2023-05-23T00:13:04;9.10;;;6.80;;
57297;SDS011;43147;50.972;18.210;2023-05-23T00:15:34;12.00;;;10.70;;
57297;SDS011;43147;50.972;18.210;2023-05-23T00:18:02;12.00;;;6.90;;
57297;SDS011;43147;50.972;18.210;2023-05-23T00:20:28;15.80;;;10.50;;
57297;SDS011;43147;50.972;18.210;2023-05-23T00:22:54;16.20;;;7.40;;
57297;SDS011;43147;50.972;18.210;2023-05-23T00:25:23;14.10;;;11.20;;
57297;SDS011;43147;50.972;18.210;2023-05-23T00:27:49;14.20;;;10.90;;
57297;SDS011;43147;50.972;18.210;2023-05-23T00:30:15;14.30;;;10.80;;
57297;SDS011;43147;50.972;18.210;2023-05-23T00:32:41;14.80;;;11.20;;
57297;SDS011;43147;50.972;18.210;2023-05-23T00:35:07;12.50;;;7.00;;
57297;SDS011;43147;50.972;18.210;2023-05-23T00:37:33;14.00;;;8.00;;
57297;SDS011;43147;50.972;18.210;2023-05-23T00:39:59;11.30;;;8.00;;
57297;SDS011;43147;50.972;18.210;2023-05-23T00:42:25;16.40;;;11.00;;
57297;SDS011;43147;50.972;18.210;2023-05-23T00:44:50;12.00;;;8.70;;
57297;SDS011;43147;50.972;18.210;2023-05-23T00:47:15;12.10;;;10.50;;
57297;SDS011;43147;50.972;18.210;2023-05-23T00:49:42;15.00;;;11.70;;
57297;SDS011;43147;50.972;18.210;2023-05-23T00:52:08;14.00;;;7.60;;
57297;SDS011;43147;50.972;18.210;2023-05-23T00:54:33;14.30;;;7.30;;
57297;SDS011;43147;50.972;18.210;2023-05-23T00:57:00;12.80;;;10.90;;
57297;SDS011;43147;50.972;18.210;2023-05-23T00:59:26;23.30;;;8.00;;
57297;SDS011;43147;50.972;18.210;2023-05-23T01:01:53;15.10;;;11.50;;
57297;SDS011;43147;50.972;18.210;2023-05-23T01:04:20;12.70;;;7.70;;
57297;SDS011;43147;50.972;18.210;2023-05-23T01:06:51;18.90;;;8.30;;
57297;SDS011;43147;50.972;18.210;2023-05-23T01:09:20;17.00;;;9.10;;
57297;SDS011;43147;50.972;18.210;2023-05-23T01:11:57;14.20;;;7.60;;
57297;SDS011;43147;50.972;18.210;2023-05-23T01:14:31;13.30;;;8.20;;
57297;SDS011;43147;50.972;18.210;2023-05-23T01:17:12;16.20;;;12.50;;
57297;SDS011;43147;50.972;18.210;2023-05-23T01:28:22;16.20;;;8.60;;
57297;SDS011;43147;50.972;18.210;2023-05-23T01:30:56;12.20;;;8.70;;
57297;SDS011;43147;50.972;18.210;2023-05-23T01:33:23;15.20;;;8.60;;
57297;SDS011;43147;50.972;18.210;2023-05-23T01:35:49;13.50;;;8.60;;
57297;SDS011;43147;50.972;18.210;2023-05-23T01:38:15;17.80;;;8.40;;
57297;SDS011;43147;50.972;18.210;2023-05-23T01:40:41;16.90;;;14.10;;
57297;SDS011;43147;50.972;18.210;2023-05-23T01:43:07;16.60;;;8.50;;
57297;SDS011;43147;50.972;18.210;2023-05-23T01:45:33;15.10;;;8.90;;
57297;SDS011;43147;50.972;18.210;2023-05-23T01:47:58;14.70;;;8.70;;
57297;SDS011;43147;50.972;18.210;2023-05-23T01:50:25;15.80;;;8.80;;
57297;SDS011;43147;50.972;18.210;2023-05-23T01:52:51;17.30;;;14.10;;
57297;SDS011;43147;50.972;18.210;2023-05-23T01:55:18;23.30;;;9.50;;
57297;SDS011;43147;50.972;18.210;2023-05-23T01:57:48;12.90;;;8.10;;
57297;SDS011;43147;50.972;18.210;2023-05-23T02:00:15;13.80;;;9.40;;
57297;SDS011;43147;50.972;18.210;2023-05-23T02:02:44;14.80;;;8.90;;
57297;SDS011;43147;50.972;18.210;2023-05-23T02:05:10;14.00;;;9.60;;
57297;SDS011;43147;50.972;18.210;2023-05-23T02:07:35;15.40;;;9.00;;
57297;SDS011;43147;50.972;18.210;2023-05-23T02:10:02;16.70;;;8.60;;
57297;SDS011;43147;50.972;18.210;2023-05-23T02:12:28;17.30;;;9.20;;
57297;SDS011;43147;50.972;18.210;2023-05-23T02:14:53;14.00;;;8.70;;
57297;SDS011;43147;50.972;18.210;2023-05-23T02:17:19;12.00;;;8.30;;
57297;SDS011;43147;50.972;18.210;2023-05-23T02:19:48;13.20;;;9.10;;
57297;SDS011;43147;50.972;18.210;2023-05-23T02:22:14;13.80;;;8.40;;
57297;SDS011;43147;50.972;18.210;2023-05-23T02:24:39;12.00;;;9.40;;
57297;SDS011;43147;50.972;18.210;2023-05-23T02:27:05;15.10;;;8.80;;
57297;SDS011;43147;50.972;18.210;2023-05-23T02:29:31;14.60;;;8.40;;
57297;SDS011;43147;50.972;18.210;2023-05-23T02:31:57;16.10;;;10.00;;
57297;SDS011;43147;50.972;18.210;2023-05-23T02:34:22;19.50;;;8.70;;
57297;SDS011;43147;50.972;18.210;2023-05-23T02:36:48;15.30;;;8.80;;
57297;SDS011;43147;50.972;18.210;2023-05-23T02:39:13;16.30;;;9.00;;
57297;SDS011;43147;50.972;18.210;2023-05-23T02:41:39;14.30;;;9.00;;
57297;SDS011;43147;50.972;18.210;2023-05-23T02:44:04;11.70;;;9.10;;
57297;SDS011;43147;50.972;18.210;2023-05-23T02:46:30;15.80;;;12.90;;
57297;SDS011;43147;50.972;18.210;2023-05-23T02:48:56;18.20;;;8.40;;
57297;SDS011;43147;50.972;18.210;2023-05-23T02:51:21;15.70;;;9.30;;
57297;SDS011;43147;50.972;18.210;2023-05-23T02:53:46;13.40;;;8.60;;
57297;SDS011;43147;50.972;18.210;2023-05-23T02:56:12;12.00;;;8.90;;
57297;SDS011;43147;50.972;18.210;2023-05-23T02:58:40;22.50;;;9.20;;
57297;SDS011;43147;50.972;18.210;2023-05-23T03:01:05;14.20;;;9.40;;
57297;SDS011;43147;50.972;18.210;2023-05-23T03:03:34;12.10;;;9.10;;
57297;SDS011;43147;50.972;18.210;2023-05-23T03:06:01;17.10;;;9.00;;
57297;SDS011;43147;50.972;18.210;2023-05-23T03:08:30;15.50;;;9.90;;
57297;SDS011;43147;50.972;18.210;2023-05-23T03:10:56;13.80;;;10.00;;
57297;SDS011;43147;50.972;18.210;2023-05-23T03:13:22;19.50;;;14.10;;
57297;SDS011;43147;50.972;18.210;2023-05-23T03:15:47;12.70;;;8.10;;
57297;SDS011;43147;50.972;18.210;2023-05-23T03:18:13;14.40;;;8.90;;
57297;SDS011;43147;50.972;18.210;2023-05-23T03:20:38;17.70;;;9.10;;
57297;SDS011;43147;50.972;18.210;2023-05-23T03:23:04;16.50;;;8.80;;
57297;SDS011;43147;50.972;18.210;2023-05-23T03:25:30;14.70;;;9.40;;
57297;SDS011;43147;50.972;18.210;2023-05-23T03:27:55;11.60;;;8.40;;
57297;SDS011;43147;50.972;18.210;2023-05-23T03:30:21;15.20;;;8.90;;
57297;SDS011;43147;50.972;18.210;2023-05-23T03:32:47;15.30;;;9.90;;
57297;SDS011;43147;50.972;18.210;2023-05-23T03:35:12;17.30;;;9.40;;
57297;SDS011;43147;50.972;18.210;2023-05-23T03:37:38;16.90;;;12.90;;
57297;SDS011;43147;50.972;18.210;2023-05-23T03:40:04;13.00;;;8.30;;
57297;SDS011;43147;50.972;18.210;2023-05-23T03:42:31;15.50;;;9.10;;
57297;SDS011;43147;50.972;18.210;2023-05-23T03:44:57;17.70;;;9.00;;
57297;SDS011;43147;50.972;18.210;2023-05-23T03:47:22;11.90;;;8.20;;
57297;SDS011;43147;50.972;18.210;2023-05-23T03:49:49;12.70;;;7.90;;
57297;SDS011;43147;50.972;18.210;2023-05-23T03:52:15;13.20;;;8.80;;
57297;SDS011;43147;50.972;18.210;2023-05-23T03:54:41;13.30;;;8.90;;
57297;SDS011;43147;50.972;18.210;2023-05-23T03:57:10;10.90;;;7.90;;
57297;SDS011;43147;50.972;18.210;2023-05-23T03:59:35;13.60;;;7.50;;
57297;SDS011;43147;50.972;18.210;2023-05-23T04:02:01;14.20;;;8.90;;
57297;SDS011;43147;50.972;18.210;2023-05-23T04:04:27;14.00;;;7.50;;
57297;SDS011;43147;50.972;18.210;2023-05-23T04:06:53;13.90;;;10.30;;
57297;SDS011;43147;50.972;18.210;2023-05-23T04:09:18;12.00;;;10.50;;
57297;SDS011;43147;50.972;18.210;2023-05-23T04:11:44;12.50;;;10.00;;
57297;SDS011;43147;50.972;18.210;2023-05-23T04:14:11;13.40;;;9.60;;
57297;SDS011;43147;50.972;18.210;2023-05-23T04:16:37;8.60;;;6.60;;
57297;SDS011;43147;50.972;18.210;2023-05-23T04:19:05;12.90;;;9.50;;
57297;SDS011;43147;50.972;18.210;2023-05-23T04:21:32;8.60;;;6.90;;
57297;SDS011;43147;50.972;18.210;2023-05-23T04:23:58;15.40;;;9.60;;
57297;SDS011;43147;50.972;18.210;2023-05-23T04:26:23;13.10;;;9.90;;
57297;SDS011;43147;50.972;18.210;2023-05-23T04:28:51;15.10;;;8.80;;
57297;SDS011;43147;50.972;18.210;2023-05-23T04:31:18;11.30;;;9.60;;
57297;SDS011;43147;50.972;18.210;2023-05-23T04:33:45;16.20;;;9.00;;
57297;SDS011;43147;50.972;18.210;2023-05-23T04:36:10;11.50;;;9.20;;
57297;SDS011;43147;50.972;18.210;2023-05-23T04:38:36;12.40;;;8.60;;
57297;SDS011;43147;50.972;18.210;2023-05-23T04:41:05;23.20;;;12.60;;
57297;SDS011;43147;50.972;18.210;2023-05-23T04:43:31;23.50;;;12.30;;
57297;SDS011;43147;50.972;18.210;2023-05-23T04:46:10;27.30;;;14.30;;
57297;SDS011;43147;50.972;18.210;2023-05-23T04:48:35;32.10;;;17.70;;
57297;SDS011;43147;50.972;18.210;2023-05-23T04:51:03;26.20;;;17.00;;
57297;SDS011;43147;50.972;18.210;2023-05-23T04:53:33;26.40;;;13.00;;
57297;SDS011;43147;50.972;18.210;2023-05-23T04:55:59;27.00;;;14.20;;
57297;SDS011;43147;50.972;18.210;2023-05-23T04:58:25;18.90;;;9.40;;
57297;SDS011;43147;50.972;18.210;2023-05-23T05:00:50;15.90;;;11.40;;
57297;SDS011;43147;50.972;18.210;2023-05-23T05:03:16;19.10;;;10.90;;
57297;SDS011;43147;50.972;18.210;2023-05-23T05:05:42;12.80;;;8.00;;
57297;SDS011;43147;50.972;18.210;2023-05-23T05:08:07;8.30;;;7.00;;
57297;SDS011;43147;50.972;18.210;2023-05-23T05:10:33;9.50;;;6.20;;
57297;SDS011;43147;50.972;18.210;2023-05-23T05:12:58;9.00;;;5.80;;
57297;SDS011;43147;50.972;18.210;2023-05-23T05:15:24;10.20;;;5.70;;
57297;SDS011;43147;50.972;18.210;2023-05-23T05:17:50;9.80;;;5.30;;
57297;SDS011;43147;50.972;18.210;2023-05-23T05:20:15;9.40;;;5.60;;
57297;SDS011;43147;50.972;18.210;2023-05-23T05:22:41;9.60;;;5.40;;
57297;SDS011;43147;50.972;18.210;2023-05-23T05:25:08;14.00;;;5.40;;
57297;SDS011;43147;50.972;18.210;2023-05-23T05:27:35;10.20;;;4.80;;
57297;SDS011;43147;50.972;18.210;2023-05-23T05:30:05;6.80;;;4.70;;
57297;SDS011;43147;50.972;18.210;2023-05-23T05:32:32;6.60;;;5.20;;
57297;SDS011;43147;50.972;18.210;2023-05-23T05:35:01;7.50;;;4.70;;
57297;SDS011;43147;50.972;18.210;2023-05-23T05:37:28;9.30;;;4.70;;
57297;SDS011;43147;50.972;18.210;2023-05-23T05:39:54;7.50;;;4.30;;
57297;SDS011;43147;50.972;18.210;2023-05-23T05:42:21;9.10;;;4.30;;
57297;SDS011;43147;50.972;18.210;2023-05-23T05:44:47;7.60;;;3.80;;
57297;SDS011;43147;50.972;18.210;2023-05-23T05:47:13;6.50;;;3.80;;
57297;SDS011;43147;50.972;18.210;2023-05-23T05:49:39;5.80;;;4.50;;
57297;SDS011;43147;50.972;18.210;2023-05-23T05:52:05;7.70;;;3.80;;
57297;SDS011;43147;50.972;18.210;2023-05-23T05:54:31;10.90;;;4.00;;
57297;SDS011;43147;50.972;18.210;2023-05-23T05:56:57;7.80;;;4.00;;
57297;SDS011;43147;50.972;18.210;2023-05-23T05:59:23;7.00;;;4.30;;
57297;SDS011;43147;50.972;18.210;2023-05-23T06:01:48;9.70;;;4.10;;
57297;SDS011;43147;50.972;18.210;2023-05-23T06:04:17;8.00;;;4.30;;
57297;SDS011;43147;50.972;18.210;2023-05-23T06:06:42;11.80;;;5.10;;
57297;SDS011;43147;50.972;18.210;2023-05-23T06:09:08;11.40;;;4.60;;
57297;SDS011;43147;50.972;18.210;2023-05-23T06:11:34;6.40;;;4.90;;
57297;SDS011;43147;50.972;18.210;2023-05-23T06:14:04;12.10;;;5.30;;
57297;SDS011;43147;50.972;18.210;2023-05-23T06:16:30;8.50;;;5.60;;
57297;SDS011;43147;50.972;18.210;2023-05-23T06:18:55;9.00;;;5.10;;
57297;SDS011;43147;50.972;18.210;2023-05-23T06:21:21;10.00;;;5.80;;
57297;SDS011;43147;50.972;18.210;2023-05-23T06:23:46;10.50;;;5.30;;
57297;SDS011;43147;50.972;18.210;2023-05-23T06:26:12;9.70;;;5.40;;
57297;SDS011;43147;50.972;18.210;2023-05-23T06:28:40;7.60;;;5.00;;
57297;SDS011;43147;50.972;18.210;2023-05-23T06:31:05;9.10;;;4.60;;
57297;SDS011;43147;50.972;18.210;2023-05-23T06:33:34;9.20;;;5.30;;
57297;SDS011;43147;50.972;18.210;2023-05-23T06:36:00;12.80;;;5.60;;
57297;SDS011;43147;50.972;18.210;2023-05-23T06:38:27;9.90;;;4.70;;
57297;SDS011;43147;50.972;18.210;2023-05-23T06:40:54;9.40;;;5.10;;
57297;SDS011;43147;50.972;18.210;2023-05-23T06:43:20;10.30;;;5.10;;
57297;SDS011;43147;50.972;18.210;2023-05-23T06:45:45;8.20;;;4.90;;
57297;SDS011;43147;50.972;18.210;2023-05-23T06:48:14;10.20;;;4.60;;
57297;SDS011;43147;50.972;18.210;2023-05-23T06:50:40;7.40;;;4.70;;
57297;SDS011;43147;50.972;18.210;2023-05-23T06:53:06;8.30;;;4.80;;
57297;SDS011;43147;50.972;18.210;2023-05-23T06:55:32;13.40;;;5.00;;
57297;SDS011;43147;50.972;18.210;2023-05-23T06:58:00;8.50;;;4.10;;
57297;SDS011;43147;50.972;18.210;2023-05-23T07:00:28;8.80;;;4.80;;
57297;SDS011;43147;50.972;18.210;2023-05-23T07:02:55;8.30;;;4.50;;
57297;SDS011;43147;50.972;18.210;2023-05-23T07:05:25;6.90;;;4.70;;
57297;SDS011;43147;50.972;18.210;2023-05-23T07:07:52;8.30;;;4.90;;
57297;SDS011;43147;50.972;18.210;2023-05-23T07:10:18;5.20;;;4.60;;
57297;SDS011;43147;50.972;18.210;2023-05-23T07:12:44;10.00;;;4.80;;
57297;SDS011;43147;50.972;18.210;2023-05-23T07:15:10;7.40;;;4.80;;
57297;SDS011;43147;50.972;18.210;2023-05-23T07:17:36;10.60;;;4.20;;
57297;SDS011;43147;50.972;18.210;2023-05-23T07:20:02;9.10;;;4.50;;
57297;SDS011;43147;50.972;18.210;2023-05-23T07:22:29;8.20;;;4.20;;
57297;SDS011;43147;50.972;18.210;2023-05-23T07:24:55;8.40;;;4.00;;
57297;SDS011;43147;50.972;18.210;2023-05-23T07:27:21;7.90;;;3.90;;
57297;SDS011;43147;50.972;18.210;2023-05-23T07:29:47;9.50;;;3.80;;
57297;SDS011;43147;50.972;18.210;2023-05-23T07:32:12;13.70;;;3.70;;
57297;SDS011;43147;50.972;18.210;2023-05-23T07:34:38;5.10;;;3.50;;
57297;SDS011;43147;50.972;18.210;2023-05-23T07:37:03;7.60;;;3.60;;
57297;SDS011;43147;50.972;18.210;2023-05-23T07:39:29;8.50;;;4.10;;
57297;SDS011;43147;50.972;18.210;2023-05-23T07:41:54;6.70;;;3.60;;
57297;SDS011;43147;50.972;18.210;2023-05-23T07:44:20;7.70;;;3.40;;
57297;SDS011;43147;50.972;18.210;2023-05-23T07:46:47;7.20;;;3.70;;
57297;SDS011;43147;50.972;18.210;2023-05-23T07:49:12;7.70;;;3.80;;
57297;SDS011;43147;50.972;18.210;2023-05-23T07:51:38;12.70;;;3.80;;
57297;SDS011;43147;50.972;18.210;2023-05-23T07:54:04;8.80;;;3.50;;
57297;SDS011;43147;50.972;18.210;2023-05-23T07:56:30;11.60;;;3.90;;
57297;SDS011;43147;50.972;18.210;2023-05-23T07:58:55;13.40;;;3.50;;
57297;SDS011;43147;50.972;18.210;2023-05-23T08:01:21;12.20;;;3.80;;
57297;SDS011;43147;50.972;18.210;2023-05-23T08:03:46;6.60;;;3.00;;
57297;SDS011;43147;50.972;18.210;2023-05-23T08:06:12;7.80;;;3.50;;
57297;SDS011;43147;50.972;18.210;2023-05-23T08:08:38;8.10;;;4.30;;
57297;SDS011;43147;50.972;18.210;2023-05-23T08:11:04;4.40;;;3.40;;
57297;SDS011;43147;50.972;18.210;2023-05-23T08:13:30;3.70;;;3.00;;
57297;SDS011;43147;50.972;18.210;2023-05-23T08:15:55;8.50;;;3.60;;
57297;SDS011;43147;50.972;18.210;2023-05-23T08:18:21;5.30;;;2.80;;
57297;SDS011;43147;50.972;18.210;2023-05-23T08:20:47;5.30;;;3.00;;
57297;SDS011;43147;50.972;18.210;2023-05-23T08:23:12;6.60;;;3.50;;
57297;SDS011;43147;50.972;18.210;2023-05-23T08:25:38;8.40;;;3.00;;
57297;SDS011;43147;50.972;18.210;2023-05-23T08:28:04;7.50;;;3.00;;
57297;SDS011;43147;50.972;18.210;2023-05-23T08:30:30;5.70;;;3.70;;
57297;SDS011;43147;50.972;18.210;2023-05-23T08:32:58;6.80;;;3.00;;
57297;SDS011;43147;50.972;18.210;2023-05-23T08:35:25;6.70;;;3.30;;
57297;SDS011;43147;50.972;18.210;2023-05-23T08:37:53;8.90;;;4.00;;
57297;SDS011;43147;50.972;18.210;2023-05-23T08:40:20;4.90;;;3.30;;
57297;SDS011;43147;50.972;18.210;2023-05-23T08:42:47;4.70;;;3.80;;
57297;SDS011;43147;50.972;18.210;2023-05-23T08:45:13;4.40;;;3.50;;
57297;SDS011;43147;50.972;18.210;2023-05-23T08:47:41;7.00;;;4.20;;
57297;SDS011;43147;50.972;18.210;2023-05-23T08:50:11;5.70;;;4.10;;
57297;SDS011;43147;50.972;18.210;2023-05-23T08:52:41;7.90;;;4.10;;
57297;SDS011;43147;50.972;18.210;2023-05-23T08:55:10;10.70;;;3.40;;
57297;SDS011;43147;50.972;18.210;2023-05-23T08:57:36;6.90;;;3.60;;
57297;SDS011;43147;50.972;18.210;2023-05-23T09:00:03;4.10;;;3.50;;
57297;SDS011;43147;50.972;18.210;2023-05-23T09:02:34;11.80;;;4.40;;
57297;SDS011;43147;50.972;18.210;2023-05-23T09:05:01;7.30;;;3.80;;
57297;SDS011;43147;50.972;18.210;2023-05-23T09:07:27;7.20;;;3.40;;
57297;SDS011;43147;50.972;18.210;2023-05-23T09:09:53;10.10;;;4.10;;
57297;SDS011;43147;50.972;18.210;2023-05-23T09:12:19;7.80;;;3.80;;
57297;SDS011;43147;50.972;18.210;2023-05-23T09:14:46;7.70;;;3.60;;
57297;SDS011;43147;50.972;18.210;2023-05-23T09:17:18;8.10;;;4.00;;
57297;SDS011;43147;50.972;18.210;2023-05-23T09:19:45;7.00;;;3.80;;
57297;SDS011;43147;50.972;18.210;2023-05-23T09:22:14;11.00;;;4.10;;
57297;SDS011;43147;50.972;18.210;2023-05-23T09:24:39;9.40;;;3.80;;
57297;SDS011;43147;50.972;18.210;2023-05-23T09:27:06;5.00;;;3.40;;
57297;SDS011;43147;50.972;18.210;2023-05-23T09:29:35;11.00;;;3.90;;
57297;SDS011;43147;50.972;18.210;2023-05-23T09:32:10;9.90;;;3.90;;
57297;SDS011;43147;50.972;18.210;2023-05-23T09:37:15;6.70;;;3.30;;
57297;SDS011;43147;50.972;18.210;2023-05-23T09:39:46;6.90;;;3.70;;
57297;SDS011;43147;50.972;18.210;2023-05-23T09:42:19;9.90;;;3.70;;
57297;SDS011;43147;50.972;18.210;2023-05-23T09:44:47;7.80;;;3.20;;
57297;SDS011;43147;50.972;18.210;2023-05-23T09:47:14;7.30;;;2.90;;
57297;SDS011;43147;50.972;18.210;2023-05-23T09:49:44;6.80;;;3.30;;
57297;SDS011;43147;50.972;18.210;2023-05-23T09:52:10;7.60;;;3.10;;
57297;SDS011;43147;50.972;18.210;2023-05-23T09:54:36;4.70;;;3.30;;
57297;SDS011;43147;50.972;18.210;2023-05-23T09:57:02;6.00;;;3.70;;
57297;SDS011;43147;50.972;18.210;2023-05-23T09:59:35;5.30;;;3.00;;
57297;SDS011;43147;50.972;18.210;2023-05-23T10:02:06;5.10;;;3.00;;
57297;SDS011;43147;50.972;18.210;2023-05-23T10:04:33;5.80;;;2.70;;
57297;SDS011;43147;50.972;18.210;2023-05-23T10:07:00;7.40;;;3.30;;
57297;SDS011;43147;50.972;18.210;2023-05-23T10:09:35;5.20;;;3.10;;
57297;SDS011;43147;50.972;18.210;2023-05-23T10:14:49;3.60;;;2.80;;
57297;SDS011;43147;50.972;18.210;2023-05-23T10:17:17;4.90;;;2.90;;
57297;SDS011;43147;50.972;18.210;2023-05-23T10:19:47;8.20;;;3.00;;
57297;SDS011;43147;50.972;18.210;2023-05-23T10:22:18;5.60;;;3.30;;
57297;SDS011;43147;50.972;18.210;2023-05-23T10:24:45;6.60;;;3.10;;
57297;SDS011;43147;50.972;18.210;2023-05-23T10:27:12;8.20;;;2.90;;
57297;SDS011;43147;50.972;18.210;2023-05-23T10:29:40;4.10;;;3.10;;
57297;SDS011;43147;50.972;18.210;2023-05-23T10:32:05;6.90;;;3.00;;
57297;SDS011;43147;50.972;18.210;2023-05-23T10:37:55;3.00;;;2.70;;
57297;SDS011;43147;50.972;18.210;2023-05-23T10:45:27;9.40;;;3.40;;
57297;SDS011;43147;50.972;18.210;2023-05-23T10:47:53;6.40;;;3.20;;
57297;SDS011;43147;50.972;18.210;2023-05-23T10:50:34;7.00;;;2.90;;
57297;SDS011;43147;50.972;18.210;2023-05-23T10:53:05;10.70;;;3.50;;
57297;SDS011;43147;50.972;18.210;2023-05-23T10:55:33;8.10;;;3.90;;
57297;SDS011;43147;50.972;18.210;2023-05-23T10:58:17;9.70;;;3.40;;
57297;SDS011;43147;50.972;18.210;2023-05-23T11:03:29;14.20;;;3.50;;
57297;SDS011;43147;50.972;18.210;2023-05-23T11:05:58;6.70;;;3.50;;
57297;SDS011;43147;50.972;18.210;2023-05-23T11:08:25;7.00;;;4.00;;
57297;SDS011;43147;50.972;18.210;2023-05-23T11:10:51;10.70;;;4.30;;
57297;SDS011;43147;50.972;18.210;2023-05-23T11:13:18;7.10;;;4.20;;
57297;SDS011;43147;50.972;18.210;2023-05-23T11:15:46;5.00;;;3.80;;
57297;SDS011;43147;50.972;18.210;2023-05-23T11:18:25;6.70;;;3.40;;
57297;SDS011;43147;50.972;18.210;2023-05-23T11:20:52;6.20;;;4.00;;
57297;SDS011;43147;50.972;18.210;2023-05-23T11:23:19;8.40;;;3.90;;
57297;SDS011;43147;50.972;18.210;2023-05-23T11:25:52;8.40;;;4.20;;
57297;SDS011;43147;50.972;18.210;2023-05-23T11:28:18;9.60;;;4.40;;
57297;SDS011;43147;50.972;18.210;2023-05-23T11:30:47;7.10;;;4.40;;
57297;SDS011;43147;50.972;18.210;2023-05-23T11:33:14;13.80;;;6.70;;
57297;SDS011;43147;50.972;18.210;2023-05-23T11:35:41;14.70;;;7.50;;
57297;SDS011;43147;50.972;18.210;2023-05-23T11:38:08;14.30;;;8.00;;
57297;SDS011;43147;50.972;18.210;2023-05-23T11:40:36;13.80;;;7.40;;
57297;SDS011;43147;50.972;18.210;2023-05-23T11:43:09;10.70;;;6.80;;
57297;SDS011;43147;50.972;18.210;2023-05-23T11:45:39;18.00;;;8.40;;
57297;SDS011;43147;50.972;18.210;2023-05-23T11:48:07;11.50;;;8.20;;
57297;SDS011;43147;50.972;18.210;2023-05-23T11:50:33;15.60;;;8.10;;
57297;SDS011;43147;50.972;18.210;2023-05-23T11:53:12;10.20;;;7.90;;
57297;SDS011;43147;50.972;18.210;2023-05-23T11:55:38;8.40;;;7.40;;
57297;SDS011;43147;50.972;18.210;2023-05-23T11:58:05;13.80;;;8.20;;
57297;SDS011;43147;50.972;18.210;2023-05-23T12:00:30;17.30;;;8.00;;
57297;SDS011;43147;50.972;18.210;2023-05-23T12:02:56;11.70;;;7.80;;
57297;SDS011;43147;50.972;18.210;2023-05-23T12:05:21;11.10;;;8.30;;
57297;SDS011;43147;50.972;18.210;2023-05-23T12:07:47;17.30;;;9.20;;
57297;SDS011;43147;50.972;18.210;2023-05-23T12:10:14;18.50;;;9.50;;
57297;SDS011;43147;50.972;18.210;2023-05-23T12:12:46;10.10;;;8.90;;
57297;SDS011;43147;50.972;18.210;2023-05-23T12:15:13;14.20;;;9.20;;
57297;SDS011;43147;50.972;18.210;2023-05-23T12:17:43;17.10;;;9.10;;
57297;SDS011;43147;50.972;18.210;2023-05-23T12:20:12;14.20;;;9.10;;
57297;SDS011;43147;50.972;18.210;2023-05-23T12:22:38;14.60;;;8.90;;
57297;SDS011;43147;50.972;18.210;2023-05-23T12:25:06;10.60;;;8.00;;
57297;SDS011;43147;50.972;18.210;2023-05-23T12:27:34;20.30;;;8.70;;
57297;SDS011;43147;50.972;18.210;2023-05-23T12:30:08;15.40;;;8.60;;
57297;SDS011;43147;50.972;18.210;2023-05-23T12:32:38;13.90;;;9.80;;
57297;SDS011;43147;50.972;18.210;2023-05-23T12:35:04;15.90;;;9.50;;
57297;SDS011;43147;50.972;18.210;2023-05-23T12:37:31;11.10;;;9.20;;
57297;SDS011;43147;50.972;18.210;2023-05-23T12:39:56;11.50;;;9.50;;
57297;SDS011;43147;50.972;18.210;2023-05-23T12:42:22;11.30;;;9.30;;
57297;SDS011;43147;50.972;18.210;2023-05-23T12:44:52;10.90;;;8.80;;
57297;SDS011;43147;50.972;18.210;2023-05-23T12:47:17;9.40;;;8.40;;
57297;SDS011;43147;50.972;18.210;2023-05-23T12:49:43;8.20;;;6.90;;
57297;SDS011;43147;50.972;18.210;2023-05-23T12:52:10;11.10;;;7.90;;
57297;SDS011;43147;50.972;18.210;2023-05-23T12:54:36;15.90;;;8.90;;
57297;SDS011;43147;50.972;18.210;2023-05-23T12:57:02;10.70;;;9.20;;
57297;SDS011;43147;50.972;18.210;2023-05-23T12:59:27;9.80;;;7.40;;
57297;SDS011;43147;50.972;18.210;2023-05-23T13:01:53;8.80;;;7.90;;
57297;SDS011;43147;50.972;18.210;2023-05-23T13:04:19;10.10;;;9.10;;
57297;SDS011;43147;50.972;18.210;2023-05-23T13:06:44;9.70;;;8.30;;
57297;SDS011;43147;50.972;18.210;2023-05-23T13:09:10;8.70;;;7.90;;
57297;SDS011;43147;50.972;18.210;2023-05-23T13:11:36;10.20;;;8.20;;
57297;SDS011;43147;50.972;18.210;2023-05-23T13:14:02;10.00;;;8.30;;
57297;SDS011;43147;50.972;18.210;2023-05-23T13:16:28;8.60;;;7.70;;
57297;SDS011;43147;50.972;18.210;2023-05-23T13:18:53;9.70;;;8.70;;
57297;SDS011;43147;50.972;18.210;2023-05-23T13:21:19;10.60;;;8.70;;
57297;SDS011;43147;50.972;18.210;2023-05-23T13:23:45;8.70;;;7.40;;
57297;SDS011;43147;50.972;18.210;2023-05-23T13:26:10;13.60;;;7.90;;
57297;SDS011;43147;50.972;18.210;2023-05-23T13:28:36;10.20;;;7.50;;
57297;SDS011;43147;50.972;18.210;2023-05-23T13:31:02;6.60;;;6.10;;
57297;SDS011;43147;50.972;18.210;2023-05-23T13:33:27;7.50;;;6.60;;
57297;SDS011;43147;50.972;18.210;2023-05-23T13:35:53;8.20;;;6.80;;
57297;SDS011;43147;50.972;18.210;2023-05-23T13:38:19;9.00;;;6.00;;
57297;SDS011;43147;50.972;18.210;2023-05-23T13:40:45;9.00;;;6.30;;
57297;SDS011;43147;50.972;18.210;2023-05-23T13:43:11;11.10;;;6.30;;
57297;SDS011;43147;50.972;18.210;2023-05-23T13:45:37;8.90;;;6.30;;
57297;SDS011;43147;50.972;18.210;2023-05-23T13:48:02;11.20;;;6.30;;
57297;SDS011;43147;50.972;18.210;2023-05-23T13:50:28;10.00;;;6.50;;
57297;SDS011;43147;50.972;18.210;2023-05-23T13:52:54;10.00;;;6.30;;
57297;SDS011;43147;50.972;18.210;2023-05-23T13:55:20;6.60;;;6.00;;
57297;SDS011;43147;50.972;18.210;2023-05-23T13:57:48;7.40;;;6.20;;
57297;SDS011;43147;50.972;18.210;2023-05-23T14:00:14;11.90;;;7.90;;
57297;SDS011;43147;50.972;18.210;2023-05-23T14:02:40;10.20;;;7.70;;
57297;SDS011;43147;50.972;18.210;2023-05-23T14:05:06;15.50;;;8.70;;
57297;SDS011;43147;50.972;18.210;2023-05-23T14:07:32;16.20;;;9.60;;
57297;SDS011;43147;50.972;18.210;2023-05-23T14:09:59;9.00;;;7.00;;
57297;SDS011;43147;50.972;18.210;2023-05-23T14:12:25;8.50;;;6.80;;
57297;SDS011;43147;50.972;18.210;2023-05-23T14:14:51;8.20;;;6.50;;
57297;SDS011;43147;50.972;18.210;2023-05-23T14:17:17;8.90;;;7.10;;
57297;SDS011;43147;50.972;18.210;2023-05-23T14:19:43;7.10;;;6.40;;
57297;SDS011;43147;50.972;18.210;2023-05-23T14:22:09;8.40;;;6.10;;
57297;SDS011;43147;50.972;18.210;2023-05-23T14:24:35;7.90;;;6.10;;
57297;SDS011;43147;50.972;18.210;2023-05-23T14:27:01;10.20;;;7.40;;
57297;SDS011;43147;50.972;18.210;2023-05-23T14:29:28;10.50;;;7.20;;
57297;SDS011;43147;50.972;18.210;2023-05-23T14:31:55;9.60;;;7.20;;
57297;SDS011;43147;50.972;18.210;2023-05-23T14:34:24;9.10;;;8.10;;
57297;SDS011;43147;50.972;18.210;2023-05-23T14:36:49;10.90;;;7.90;;
57297;SDS011;43147;50.972;18.210;2023-05-23T14:39:15;10.70;;;8.10;;
57297;SDS011;43147;50.972;18.210;2023-05-23T14:41:40;11.20;;;8.10;;
57297;SDS011;43147;50.972;18.210;2023-05-23T14:44:06;8.90;;;7.30;;
57297;SDS011;43147;50.972;18.210;2023-05-23T14:46:35;8.90;;;8.10;;
57297;SDS011;43147;50.972;18.210;2023-05-23T14:49:00;13.00;;;9.40;;